createdAt,value
2019-04-11T00:02:22.652Z,20.15
2019-04-11T00:04:50.375Z,20.16
2019-04-11T00:07:18.251Z,20.16
2019-04-11T00:09:45.236Z,20.16
2019-04-11T00:12:12.429Z,20.15
2019-04-11T00:14:40.122Z,20.15
2019-04-11T00:17:07.820Z,20.16
2019-04-11T00:19:35.757Z,20.15
2019-04-11T00:22:03.517Z,20.15
2019-04-11T00:24:31.365Z,20.15
2019-04-11T00:26:58.371Z,20.15
2019-04-11T00:29:26.072Z,20.15
2019-04-11T00:31:53.108Z,20.15
2019-04-11T00:34:20.643Z,20.15
2019-04-11T00:36:48.490Z,20.16
2019-04-11T00:39:15.688Z,20.16
2019-04-11T00:41:42.942Z,20.15
2019-04-11T00:44:10.415Z,20.16
2019-04-11T00:46:37.384Z,20.16
2019-04-11T00:49:04.303Z,20.15
2019-04-11T00:51:31.898Z,20.15
2019-04-11T00:53:58.893Z,20.16
2019-04-11T00:56:26.234Z,20.16
2019-04-11T00:58:54.005Z,20.16
2019-04-11T01:01:21.861Z,20.15
2019-04-11T01:03:49.559Z,20.16
2019-04-11T01:06:16.516Z,20.14
2019-04-11T01:08:44.013Z,20.14
2019-04-11T01:11:11.975Z,20.14
2019-04-11T01:13:46.653Z,20.15
2019-04-11T01:16:21.186Z,20.15
2019-04-11T01:18:48.181Z,20.14
2019-04-11T01:21:15.795Z,20.14
2019-04-11T01:23:42.942Z,20.14
2019-04-11T01:26:10.768Z,20.14
2019-04-11T01:28:38.596Z,20.15
2019-04-11T01:31:13.531Z,20.15
2019-04-11T01:33:40.620Z,20.14
2019-04-11T01:36:07.593Z,20.14
2019-04-11T01:38:36.688Z,20.14
2019-04-11T01:41:04.510Z,20.15
2019-04-11T01:43:32.433Z,20.14
2019-04-11T01:46:00.070Z,20.13
2019-04-11T01:48:28.721Z,20.13
2019-04-11T01:50:55.629Z,20.14
2019-04-11T01:53:22.667Z,20.14
2019-04-11T01:55:50.468Z,20.14
2019-04-11T01:58:18.377Z,20.14
2019-04-11T02:00:46.964Z,20.14
2019-04-11T02:03:25.425Z,20.15
2019-04-11T02:05:53.587Z,20.14
2019-04-11T02:08:20.567Z,20.13
2019-04-11T02:10:48.672Z,20.13
2019-04-11T02:13:15.844Z,20.13
2019-04-11T02:15:42.769Z,20.13
2019-04-11T02:18:10.893Z,20.13
2019-04-11T02:20:38.982Z,20.13
2019-04-11T02:23:20.133Z,20.13
2019-04-11T02:26:02.802Z,20.13
2019-04-11T02:28:30.920Z,20.13
2019-04-11T02:30:58.038Z,20.12
2019-04-11T02:33:26.816Z,20.13
2019-04-11T02:35:54.241Z,20.14
2019-04-11T02:38:23.297Z,20.13
2019-04-11T02:40:50.173Z,20.13
2019-04-11T02:43:17.607Z,20.12
2019-04-11T02:45:57.014Z,20.12
2019-04-11T02:48:13.821Z,20.13
2019-04-11T02:50:41.562Z,20.13
2019-04-11T02:53:09.617Z,20.13
2019-04-11T02:55:37.836Z,20.12
2019-04-11T02:58:06.194Z,20.13
2019-04-11T03:00:35.468Z,20.13
2019-04-11T03:03:03.549Z,20.14
2019-04-11T03:05:31.088Z,20.12
2019-04-11T03:07:58.427Z,20.13
2019-04-11T03:10:27.116Z,20.13
2019-04-11T03:12:54.575Z,20.13
2019-04-11T03:15:38.793Z,20.13
2019-04-11T03:17:54.917Z,20.12
2019-04-11T03:20:26.377Z,20.12
2019-04-11T03:22:53.048Z,20.12
2019-04-11T03:25:15.923Z,20.12
2019-04-11T03:27:43.320Z,20.13
2019-04-11T03:30:15.131Z,20.12
2019-04-11T03:38:00.071Z,20.12
2019-04-11T03:40:27.177Z,20.13
2019-04-11T03:42:46.346Z,20.13
2019-04-11T03:45:30.105Z,20.12
2019-04-11T03:47:40.877Z,20.12
2019-04-11T03:50:07.192Z,20.11
2019-04-11T03:52:28.421Z,20.11
2019-04-11T03:54:56.202Z,20.12
2019-04-11T03:57:25.456Z,20.12
2019-04-11T03:59:54.322Z,20.12
2019-04-11T04:02:22.413Z,20.11
2019-04-11T04:04:51.224Z,20.11
2019-04-11T04:07:19.179Z,20.11
2019-04-11T04:09:46.330Z,20.11
2019-04-11T04:12:14.127Z,20.11
2019-04-11T04:14:45.277Z,20.11
2019-04-11T04:17:17.058Z,20.11
2019-04-11T04:20:02.176Z,20.13
2019-04-11T04:22:37.717Z,20.12
2019-04-11T04:25:04.832Z,20.11
2019-04-11T04:27:32.707Z,20.11
2019-04-11T04:30:02.963Z,20.12
2019-04-11T04:32:30.439Z,20.12
2019-04-11T04:34:58.517Z,20.11
2019-04-11T04:37:26.863Z,20.12
2019-04-11T04:40:16.255Z,20.12
2019-04-11T04:42:31.106Z,20.12
2019-04-11T04:44:51.139Z,20.12
2019-04-11T04:47:24.808Z,20.12
2019-04-11T04:49:48.160Z,20.11
2019-04-11T04:52:16.316Z,20.12
2019-04-11T04:54:44.382Z,20.12
2019-04-11T04:57:13.066Z,20.11
2019-04-11T04:59:42.357Z,20.10
2019-04-11T05:02:10.524Z,20.12
2019-04-11T05:04:38.336Z,20.11
2019-04-11T05:07:07.249Z,20.10
2019-04-11T05:09:36.059Z,20.12
2019-04-11T05:12:03.436Z,20.10
2019-04-11T05:14:31.670Z,20.11
2019-04-11T05:17:00.073Z,20.11
2019-04-11T05:19:28.504Z,20.12
2019-04-11T05:21:55.526Z,20.11
2019-04-11T05:24:22.884Z,20.10
2019-04-11T05:26:50.359Z,20.11
2019-04-11T05:29:17.465Z,20.06
2019-04-11T05:31:44.896Z,20.11
2019-04-11T05:34:11.900Z,20.10
2019-04-11T05:36:38.815Z,20.10
2019-04-11T05:39:06.647Z,20.10
2019-04-11T05:41:33.633Z,20.09
2019-04-11T05:44:03.464Z,20.10
2019-04-11T05:46:35.215Z,20.09
2019-04-11T05:49:02.627Z,20.10
2019-04-11T05:51:38.983Z,20.10
2019-04-11T05:54:04.397Z,20.10
2019-04-11T05:56:29.995Z,20.10
2019-04-11T05:58:59.778Z,20.09
2019-04-11T06:01:31.502Z,20.10
2019-04-11T06:04:20.975Z,20.10
2019-04-11T06:06:46.954Z,20.09
2019-04-11T06:09:16.279Z,20.09
2019-04-11T06:12:01.665Z,20.09
2019-04-11T06:14:33.303Z,20.09
2019-04-11T06:17:01.955Z,20.10
2019-04-11T06:19:48.013Z,20.09
2019-04-11T06:22:15.083Z,20.09
2019-04-11T06:25:03.566Z,20.09
2019-04-11T06:27:40.205Z,20.09
2019-04-11T06:30:24.231Z,20.09
2019-04-11T06:32:54.222Z,20.09
2019-04-11T06:35:30.237Z,20.08
2019-04-11T06:38:16.356Z,20.09
2019-04-11T06:40:46.078Z,20.09
2019-04-11T06:43:23.694Z,20.09
2019-04-11T06:46:00.945Z,20.09
2019-04-11T06:48:32.245Z,20.09
2019-04-11T06:51:01.748Z,20.09
2019-04-11T06:53:30.445Z,20.10
2019-04-11T06:56:13.916Z,20.07
2019-04-11T06:58:43.446Z,20.02
2019-04-11T07:01:12.217Z,19.96
2019-04-11T07:03:44.878Z,18.61
2019-04-11T07:06:13.576Z,17.77
2019-04-11T07:08:42.658Z,17.34
2019-04-11T07:11:13.892Z,17.29
2019-04-11T07:13:45.585Z,17.06
2019-04-11T07:16:13.341Z,16.90
2019-04-11T07:18:44.567Z,17.02
2019-04-11T07:21:11.869Z,16.89
2019-04-11T07:23:57.562Z,16.79
2019-04-11T07:26:29.536Z,16.52
2019-04-11T07:29:07.352Z,16.24
2019-04-11T07:31:53.104Z,16.15
2019-04-11T07:34:21.764Z,16.30
2019-04-11T07:37:07.024Z,16.36
2019-04-11T07:39:44.592Z,16.42
2019-04-11T07:42:30.995Z,16.27
2019-04-11T07:45:04.160Z,16.29
2019-04-11T07:47:38.795Z,17.15
2019-04-11T07:50:06.172Z,17.82
2019-04-11T07:52:35.875Z,18.24
2019-04-11T07:55:02.860Z,18.45
2019-04-11T07:57:31.417Z,18.57
2019-04-11T08:00:17.168Z,18.68
2019-04-11T08:03:01.978Z,18.72
2019-04-11T08:05:36.784Z,18.77
2019-04-11T08:08:17.644Z,18.82
2019-04-11T08:10:48.872Z,18.87
2019-04-11T08:13:23.605Z,18.90
2019-04-11T08:16:08.759Z,18.92
2019-04-11T08:18:53.913Z,18.96
2019-04-11T08:21:39.152Z,18.99
2019-04-11T08:24:07.830Z,19.01
2019-04-11T08:26:55.412Z,19.03
2019-04-11T08:29:24.291Z,19.05
2019-04-11T08:32:09.676Z,19.07
2019-04-11T08:34:38.220Z,19.09
2019-04-11T08:37:23.354Z,19.11
2019-04-11T08:39:50.721Z,19.13
2019-04-11T08:42:37.415Z,19.14
2019-04-11T08:45:05.994Z,19.16
2019-04-11T08:47:43.823Z,19.18
2019-04-11T08:50:03.942Z,19.19
2019-04-11T08:52:32.603Z,19.21
2019-04-11T08:55:02.149Z,19.22
2019-04-11T08:57:33.993Z,19.23
2019-04-11T09:00:04.158Z,19.24
2019-04-11T09:02:33.262Z,19.24
2019-04-11T09:05:20.334Z,19.26
2019-04-11T09:07:48.512Z,19.26
2019-04-11T09:10:33.810Z,19.28
2019-04-11T09:13:05.368Z,19.28
2019-04-11T09:15:43.264Z,19.30
2019-04-11T09:18:13.332Z,19.31
2019-04-11T09:20:40.472Z,19.32
2019-04-11T09:23:07.376Z,19.33
2019-04-11T09:25:41.620Z,19.35
2019-04-11T09:28:11.269Z,19.36
2019-04-11T09:30:56.973Z,19.37
2019-04-11T09:33:28.881Z,19.38
2019-04-11T09:36:15.788Z,19.38
2019-04-11T09:38:44.381Z,19.38
2019-04-11T09:41:24.859Z,19.36
2019-04-11T09:43:53.670Z,19.37
2019-04-11T09:46:26.118Z,19.37
2019-04-11T09:48:58.053Z,19.38
2019-04-11T09:51:44.243Z,19.38
2019-04-11T09:54:22.036Z,19.39
2019-04-11T09:57:05.883Z,19.40
2019-04-11T09:59:34.441Z,19.40
2019-04-11T10:02:03.022Z,19.40
2019-04-11T10:04:31.940Z,19.41
2019-04-11T10:07:03.467Z,19.42
2019-04-11T10:09:32.370Z,19.43
2019-04-11T10:12:17.970Z,19.42
2019-04-11T10:14:46.602Z,19.44
2019-04-11T10:17:30.175Z,19.45
2019-04-11T10:19:57.093Z,19.47
2019-04-11T10:22:26.955Z,19.49
2019-04-11T10:25:12.793Z,19.52
2019-04-11T10:27:47.467Z,19.52
2019-04-11T10:30:33.539Z,19.53
2019-04-11T10:33:20.547Z,19.56
2019-04-11T10:36:05.015Z,19.57
2019-04-11T10:38:32.839Z,19.59
2019-04-11T10:41:01.373Z,19.60
2019-04-11T10:43:29.950Z,19.60
2019-04-11T10:46:07.261Z,19.61
2019-04-11T10:48:46.714Z,19.62
2019-04-11T10:51:31.760Z,19.62
2019-04-11T10:53:59.675Z,19.64
2019-04-11T10:56:28.454Z,19.65
2019-04-11T10:58:55.520Z,19.66
2019-04-11T11:01:40.328Z,19.67
2019-04-11T11:04:09.534Z,19.67
2019-04-11T11:06:36.521Z,19.69
2019-04-11T11:09:08.158Z,19.69
2019-04-11T11:11:37.202Z,19.70
2019-04-11T11:14:12.363Z,19.70
2019-04-11T11:16:44.391Z,19.71
2019-04-11T11:19:33.559Z,19.71
2019-04-11T11:21:42.984Z,19.73
2019-04-11T11:24:21.768Z,19.73
2019-04-11T11:26:51.997Z,19.72
2019-04-11T11:29:31.934Z,19.71
2019-04-11T11:32:07.145Z,19.71
2019-04-11T11:34:36.754Z,19.71
2019-04-11T11:37:20.808Z,19.71
2019-04-11T11:39:52.560Z,19.71
2019-04-11T11:42:34.453Z,19.70
2019-04-11T11:45:04.132Z,19.69
2019-04-11T11:47:49.035Z,19.70
2019-04-11T11:50:23.911Z,19.71
2019-04-11T11:52:53.207Z,19.69
2019-04-11T11:55:21.983Z,19.69
2019-04-11T11:57:53.599Z,19.70
2019-04-11T12:00:23.486Z,19.69
2019-04-11T12:03:01.901Z,19.69
2019-04-11T12:05:29.509Z,19.68
2019-04-11T12:08:01.347Z,19.69
2019-04-11T12:10:34.070Z,19.68
2019-04-11T12:13:13.340Z,19.69
2019-04-11T12:15:45.627Z,19.69
2019-04-11T12:18:24.554Z,19.69
2019-04-11T12:20:58.769Z,19.68
2019-04-11T12:23:52.857Z,19.69
2019-04-11T12:26:13.605Z,19.69
2019-04-11T12:28:41.744Z,19.69
2019-04-11T12:31:10.301Z,19.69
2019-04-11T12:33:57.586Z,19.68
2019-04-11T12:36:26.506Z,19.69
2019-04-11T12:39:04.502Z,19.70
2019-04-11T12:41:49.406Z,19.70
2019-04-11T12:44:30.394Z,19.70
2019-04-11T12:47:15.794Z,19.70
2019-04-11T12:49:52.989Z,19.70
2019-04-11T12:52:37.205Z,19.69
2019-04-11T12:55:05.824Z,19.70
2019-04-11T12:57:50.610Z,19.70
2019-04-11T13:00:19.334Z,19.71
2019-04-11T13:03:04.198Z,19.69
2019-04-11T13:05:32.866Z,19.70
2019-04-11T13:08:18.425Z,19.70
2019-04-11T13:10:47.089Z,19.70
2019-04-11T13:13:24.583Z,19.71
2019-04-11T13:15:54.694Z,19.71
2019-04-11T13:18:29.203Z,19.70
2019-04-11T13:21:14.210Z,19.70
2019-04-11T13:23:48.747Z,19.71
2019-04-11T13:26:20.288Z,19.70
2019-04-11T13:28:48.879Z,19.70
2019-04-11T13:31:33.711Z,19.70
2019-04-11T13:34:05.330Z,19.71
2019-04-11T13:36:42.723Z,19.71
2019-04-11T13:39:09.943Z,19.71
2019-04-11T13:41:38.567Z,19.72
2019-04-11T13:44:09.690Z,19.72
2019-04-11T13:46:37.408Z,19.72
2019-04-11T13:49:08.688Z,19.72
2019-04-11T13:51:53.792Z,19.72
2019-04-11T13:54:22.472Z,19.73
2019-04-11T13:56:51.128Z,19.73
2019-04-11T13:59:34.747Z,19.73
2019-04-11T14:02:06.173Z,19.73
2019-04-11T14:04:38.372Z,19.73
2019-04-11T14:07:03.480Z,19.73
2019-04-11T14:09:32.123Z,19.74
2019-04-11T14:11:59.035Z,19.73
2019-04-11T14:14:27.059Z,19.74
2019-04-11T14:16:55.610Z,19.73
2019-04-11T14:19:41.661Z,19.75
2019-04-11T14:22:13.577Z,19.74
2019-04-11T14:24:41.800Z,19.75
2019-04-11T14:27:10.926Z,19.74
2019-04-11T14:29:42.509Z,19.74
2019-04-11T14:32:11.074Z,19.74
2019-04-11T14:34:48.873Z,19.76
2019-04-11T14:37:38.502Z,19.74
2019-04-11T14:40:10.614Z,19.77
2019-04-11T14:42:46.022Z,19.77
2019-04-11T14:45:29.955Z,19.77
2019-04-11T14:48:14.856Z,19.77
2019-04-11T14:50:58.632Z,19.77
2019-04-11T14:53:27.179Z,19.78
2019-04-11T14:55:55.759Z,19.78
2019-04-11T14:58:42.457Z,19.85
2019-04-11T15:01:11.099Z,19.89
2019-04-11T15:03:43.280Z,19.89
2019-04-11T15:06:09.881Z,19.86
2019-04-11T15:08:41.663Z,19.82
2019-04-11T15:11:10.240Z,19.82
2019-04-11T15:13:38.020Z,19.80
2019-04-11T15:16:24.996Z,19.81
2019-04-11T15:18:53.545Z,19.80
2019-04-11T15:21:38.584Z,19.80
2019-04-11T15:24:07.486Z,19.80
2019-04-11T15:26:54.152Z,19.79
2019-04-11T15:29:22.705Z,19.78
2019-04-11T15:32:09.617Z,19.78
2019-04-11T15:34:38.165Z,19.79
2019-04-11T15:37:22.072Z,19.79
2019-04-11T15:40:05.717Z,19.78
2019-04-11T15:42:43.006Z,19.79
2019-04-11T15:45:13.311Z,19.78
2019-04-11T15:47:54.087Z,19.78
2019-04-11T15:50:38.952Z,19.77
2019-04-11T15:53:06.812Z,19.77
2019-04-11T15:55:52.360Z,19.78
2019-04-11T15:58:20.908Z,19.78
2019-04-11T16:00:49.464Z,19.78
2019-04-11T16:03:16.373Z,19.75
2019-04-11T16:05:50.676Z,19.76
2019-04-11T16:08:19.248Z,19.76
2019-04-11T16:10:53.560Z,19.77
2019-04-11T16:13:38.521Z,19.77
2019-04-11T16:16:11.771Z,19.77
2019-04-11T16:18:52.204Z,19.77
2019-04-11T16:21:26.247Z,19.77
2019-04-11T16:24:11.192Z,19.77
2019-04-11T16:26:48.944Z,19.76
2019-04-11T16:29:26.447Z,19.76
2019-04-11T16:31:55.017Z,19.76
2019-04-11T16:34:26.293Z,19.74
2019-04-11T16:36:53.403Z,19.75
2019-04-11T16:39:34.190Z,19.75
2019-04-11T16:42:05.812Z,19.76
2019-04-11T16:44:37.426Z,19.73
2019-04-11T16:47:12.150Z,19.74
2019-04-11T16:49:42.136Z,19.74
2019-04-11T16:52:08.579Z,19.73
2019-04-11T16:54:39.674Z,19.74
2019-04-11T16:57:04.268Z,19.74
2019-04-11T16:59:31.290Z,19.73
2019-04-11T17:01:58.288Z,19.73
2019-04-11T17:04:25.999Z,19.73
2019-04-11T17:07:11.744Z,19.73
2019-04-11T17:09:46.210Z,19.72
2019-04-11T17:12:13.116Z,19.73
2019-04-11T17:14:40.024Z,19.73
2019-04-11T17:17:14.967Z,19.73
2019-04-11T17:19:36.136Z,19.73
2019-04-11T17:22:03.728Z,19.73
2019-04-11T17:24:30.636Z,19.73
2019-04-11T17:26:57.548Z,19.72
2019-04-11T17:29:25.010Z,19.72
2019-04-11T17:31:55.606Z,19.72
2019-04-11T17:34:21.053Z,19.71
2019-04-11T17:36:47.961Z,19.71
2019-04-11T17:39:14.868Z,19.70
2019-04-11T17:41:42.615Z,19.71
2019-04-11T17:44:10.536Z,19.71
2019-04-11T17:46:37.460Z,19.70
2019-04-11T17:49:04.364Z,19.70
2019-04-11T17:51:34.422Z,19.69
2019-04-11T17:54:01.416Z,19.69
2019-04-11T17:56:28.380Z,19.70
2019-04-11T17:58:57.684Z,19.70
2019-04-11T18:01:23.932Z,19.70
2019-04-11T18:03:50.864Z,19.70
2019-04-11T18:06:17.818Z,19.69
2019-04-11T18:08:46.605Z,19.70
2019-04-11T18:11:13.315Z,19.69
2019-04-11T18:13:40.228Z,19.69
2019-04-11T18:16:07.136Z,19.69
2019-04-11T18:18:35.208Z,19.68
2019-04-11T18:21:07.087Z,19.74
2019-04-11T18:23:31.398Z,19.84
2019-04-11T18:25:58.310Z,19.95
2019-04-11T18:28:25.446Z,20.01
2019-04-11T18:30:54.111Z,20.03
2019-04-11T18:33:20.857Z,20.07
2019-04-11T18:35:47.825Z,20.10
2019-04-11T18:38:14.739Z,20.08
2019-04-11T18:40:41.636Z,20.08
2019-04-11T18:43:08.548Z,20.15
2019-04-11T18:45:35.451Z,20.20
2019-04-11T18:48:02.361Z,20.20
2019-04-11T18:50:29.276Z,20.08
2019-04-11T18:52:59.175Z,19.96
2019-04-11T18:55:24.761Z,20.03
2019-04-11T18:57:51.671Z,20.12
2019-04-11T19:00:20.144Z,20.21
2019-04-11T19:02:47.048Z,20.24
2019-04-11T19:05:13.969Z,20.27
2019-04-11T19:07:42.781Z,20.29
2019-04-11T19:10:09.440Z,20.27
2019-04-11T19:12:36.372Z,20.29
2019-04-11T19:15:03.312Z,20.36
2019-04-11T19:17:30.588Z,20.34
2019-04-11T19:19:57.539Z,20.31
2019-04-11T19:22:37.251Z,20.35
2019-04-11T19:24:53.000Z,20.41
2019-04-11T19:27:20.555Z,20.43
2019-04-11T19:29:48.552Z,20.46
2019-04-11T19:32:15.556Z,20.43
2019-04-11T19:34:42.464Z,20.33
2019-04-11T19:37:11.677Z,20.31
2019-04-11T19:39:37.928Z,20.23
2019-04-11T19:42:08.743Z,20.10
2019-04-11T19:44:35.157Z,20.07
2019-04-11T19:47:01.954Z,20.20
2019-04-11T19:49:29.578Z,20.29
2019-04-11T19:52:00.636Z,20.30
2019-04-11T19:54:25.144Z,20.29
2019-04-11T19:56:57.084Z,20.24
2019-04-11T19:59:24.024Z,20.19
2019-04-11T20:01:53.205Z,20.18
2019-04-11T20:04:21.675Z,20.17
2019-04-11T20:06:48.221Z,20.15
2019-04-11T20:09:15.182Z,20.15
2019-04-11T20:11:44.719Z,20.13
2019-04-11T20:14:10.658Z,20.12
2019-04-11T20:16:41.988Z,20.12
2019-04-11T20:19:06.221Z,20.12
2019-04-11T20:21:33.160Z,20.11
2019-04-11T20:24:00.438Z,20.11
2019-04-11T20:26:27.357Z,20.11
2019-04-11T20:28:54.292Z,20.10
2019-04-11T20:31:21.214Z,20.09
2019-04-11T20:33:48.149Z,20.09
2019-04-11T20:36:15.077Z,20.09
2019-04-11T20:38:44.735Z,20.08
2019-04-11T20:41:10.646Z,20.09
2019-04-11T20:43:37.559Z,20.08
2019-04-11T20:46:04.480Z,20.08
2019-04-11T20:48:34.860Z,20.06
2019-04-11T20:50:59.983Z,20.06
2019-04-11T20:53:26.936Z,20.06
2019-04-11T20:55:53.845Z,20.06
2019-04-11T20:58:27.217Z,20.06
2019-04-11T21:00:53.238Z,20.06
2019-04-11T21:03:17.932Z,20.06
2019-04-11T21:05:44.844Z,20.05
2019-04-11T21:08:11.801Z,20.04
2019-04-11T21:10:38.732Z,20.04
2019-04-11T21:13:07.132Z,20.03
2019-04-11T21:15:34.240Z,20.03
2019-04-11T21:18:01.157Z,20.03
2019-04-11T21:20:28.090Z,20.02
2019-04-11T21:22:54.985Z,20.03
2019-04-11T21:25:21.968Z,20.03
2019-04-11T21:27:48.883Z,20.03
2019-04-11T21:30:15.802Z,20.02
2019-04-11T21:32:42.732Z,20.03
2019-04-11T21:35:09.669Z,20.01
2019-04-11T21:37:36.887Z,20.02
2019-04-11T21:40:03.926Z,20.02
2019-04-11T21:42:30.878Z,20.02
2019-04-11T21:44:57.786Z,20.01
2019-04-11T21:47:24.692Z,20.01
2019-04-11T21:49:51.628Z,20.00
2019-04-11T21:52:18.553Z,20.01
2019-04-11T21:54:45.948Z,20.01
2019-04-11T21:57:12.878Z,20.01
2019-04-11T21:59:39.788Z,20.00
2019-04-11T22:02:06.724Z,20.01
2019-04-11T22:04:33.645Z,20.00
2019-04-11T22:07:00.878Z,20.00
2019-04-11T22:09:28.413Z,19.99
2019-04-11T22:11:55.314Z,20.00
2019-04-11T22:14:22.262Z,19.99
2019-04-11T22:16:49.178Z,19.99
2019-04-11T22:19:16.167Z,19.26
2019-04-11T22:21:45.298Z,19.99
2019-04-11T22:24:11.662Z,20.00
2019-04-11T22:26:38.583Z,19.99
2019-04-11T22:29:05.496Z,19.98
2019-04-11T22:31:32.413Z,19.99
2019-04-11T22:34:00.986Z,19.98
2019-04-11T22:36:30.108Z,19.97
2019-04-11T22:38:58.730Z,19.98
2019-04-11T22:41:25.007Z,19.98
2019-04-11T22:43:51.972Z,19.98
2019-04-11T22:46:20.952Z,19.97
2019-04-11T22:48:47.484Z,19.97
2019-04-11T22:51:14.391Z,19.97
2019-04-11T22:53:43.206Z,19.97
2019-04-11T22:56:11.710Z,19.97
2019-04-11T22:58:38.488Z,19.96
2019-04-11T23:01:05.399Z,19.97
2019-04-11T23:03:46.815Z,19.97
2019-04-11T23:06:11.801Z,19.98
2019-04-11T23:08:38.757Z,19.97
2019-04-11T23:11:05.670Z,19.96
2019-04-11T23:13:32.580Z,19.96
2019-04-11T23:15:59.507Z,19.96
2019-04-11T23:18:26.449Z,19.96
2019-04-11T23:20:55.894Z,19.96
2019-04-11T23:23:22.868Z,19.96
2019-04-11T23:25:49.812Z,19.96
2019-04-11T23:28:16.725Z,19.95
2019-04-11T23:30:43.659Z,19.95
2019-04-11T23:33:10.561Z,19.95
2019-04-11T23:35:37.491Z,19.95
2019-04-11T23:38:04.396Z,19.96
2019-04-11T23:40:31.309Z,19.95
2019-04-11T23:42:58.344Z,19.95
2019-04-11T23:45:26.913Z,19.95
2019-04-11T23:47:54.409Z,19.95
2019-04-11T23:50:24.907Z,19.95
2019-04-11T23:52:49.996Z,19.94
2019-04-11T23:55:16.938Z,19.94
2019-04-11T23:57:43.840Z,19.94
